Time;durP1;ratioP1;P1;durP2;ratioP2;P2;SDS_P1;SDS_P2;PMS_P1;PMS_P2;Temp;Humidity;BMP_temperature;BMP_pressure;BME280_temperature;BME280_humidity;BME280_pressure;Samples;Min_cycle;Max_cycle;Signal;HPM_P1;HPM_P2
2022/08/02 00:01:53;;;;;;;6.72;3.20;;;;;;;18.37;83.77;100752.75;1667323;85;25780;-61
2022/08/02 00:04:21;;;;;;;5.20;3.40;;;;;;;18.36;84.72;100759.22;1677976;85;25747;-61
2022/08/02 00:06:48;;;;;;;5.35;3.12;;;;;;;18.36;84.22;100769.28;1678030;85;26378;-61
2022/08/02 00:09:15;;;;;;;6.53;3.30;;;;;;;18.35;84.73;100764.87;1678028;85;25795;-61
2022/08/02 00:11:42;;;;;;;3.42;3.00;;;;;;;18.35;84.57;100768.95;1678078;85;28321;-61
2022/08/02 00:14:09;;;;;;;5.33;3.35;;;;;;;18.35;84.39;100771.14;1677905;85;25802;-61
2022/08/02 00:16:36;;;;;;;6.58;3.67;;;;;;;18.37;84.73;100770.98;1677978;85;25525;-61
2022/08/02 00:19:03;;;;;;;3.47;2.80;;;;;;;18.37;84.80;100782.70;1677923;85;25800;-61
2022/08/02 00:21:30;;;;;;;8.13;3.00;;;;;;;18.40;84.44;100778.75;1678207;85;26464;-61
2022/08/02 00:23:57;;;;;;;5.97;3.25;;;;;;;18.42;84.45;100784.86;1678049;85;28336;-61
2022/08/02 00:26:24;;;;;;;4.65;3.22;;;;;;;18.46;84.52;100786.20;1677770;85;25827;-61
2022/08/02 00:28:51;;;;;;;7.28;3.58;;;;;;;18.48;84.43;100787.36;1678074;85;25786;-61
2022/08/02 00:31:18;;;;;;;6.30;3.35;;;;;;;18.52;84.21;100781.84;1678234;85;25944;-61
2022/08/02 00:33:45;;;;;;;4.87;3.60;;;;;;;18.53;84.47;100783.04;1672452;85;25778;-61
2022/08/02 00:36:12;;;;;;;6.95;3.30;;;;;;;18.54;84.21;100783.38;1642660;87;28318;-61
2022/08/02 00:38:40;;;;;;;3.25;2.95;;;;;;;18.58;84.19;100786.56;1671254;84;25478;-60
2022/08/02 00:41:16;;;;;;;8.68;3.92;;;;;;;18.60;83.94;100784.50;1671396;84;25845;-61
2022/08/02 00:43:45;;;;;;;3.83;2.87;;;;;;;18.63;83.90;100786.83;1642516;87;25817;-60
2022/08/02 00:46:14;;;;;;;5.78;3.67;;;;;;;18.70;83.50;100790.48;1676135;85;25523;-61
2022/08/02 00:48:42;;;;;;;6.58;3.52;;;;;;;18.73;83.32;100791.47;1682621;85;27468;-61
2022/08/02 00:51:08;;;;;;;5.87;3.27;;;;;;;18.79;83.12;100788.51;1682851;85;25826;-61
2022/08/02 00:53:35;;;;;;;8.13;3.40;;;;;;;18.83;82.78;100791.16;1682924;85;25641;-61
2022/08/02 00:56:03;;;;;;;5.87;3.30;;;;;;;18.87;82.48;100791.66;1674739;85;25830;-61
2022/08/02 00:58:30;;;;;;;6.80;3.22;;;;;;;18.91;82.25;100780.68;1678207;85;25776;-60
2022/08/02 01:00:59;;;;;;;3.55;2.90;;;;;;;18.95;82.07;100784.76;1681191;85;28347;-61
2022/08/02 01:03:27;;;;;;;8.70;3.65;;;;;;;18.98;81.78;100782.16;1682893;84;25927;-59
2022/08/02 01:05:53;;;;;;;5.22;2.92;;;;;;;19.00;81.52;100778.20;1687381;85;25782;-60
2022/08/02 01:08:20;;;;;;;4.28;2.87;;;;;;;19.03;81.20;100783.78;1682837;85;25800;-60
2022/08/02 01:10:47;;;;;;;4.40;2.90;;;;;;;19.04;81.06;100772.70;1687265;85;25820;-60
2022/08/02 01:13:14;;;;;;;3.83;2.90;;;;;;;19.06;80.74;100777.95;1682853;84;27627;-60
2022/08/02 01:15:45;;;;;;;3.87;2.87;;;;;;;19.06;80.68;100773.33;1687340;85;25834;-60
2022/08/02 01:18:25;;;;;;;4.08;2.55;;;;;;;19.07;80.43;100772.83;1682800;85;25828;-60
2022/08/02 01:21:30;;;;;;;2.85;2.60;;;;;;;19.06;80.31;100780.16;1687654;85;26741;-60
2022/08/02 01:24:32;;;;;;;4.55;2.77;;;;;;;19.05;80.24;100788.00;1682995;84;25808;-60
2022/08/02 01:27:47;;;;;;;4.80;2.87;;;;;;;19.08;80.41;100783.53;1687705;84;27441;-60
2022/08/02 01:30:17;;;;;;;3.37;2.47;;;;;;;19.09;80.20;100774.86;1625987;88;25807;-60
2022/08/02 01:32:49;;;;;;;3.45;2.30;;;;;;;19.12;79.99;100779.91;1649004;87;25783;-60
2022/08/02 01:35:36;;;;;;;7.10;2.80;;;;;;;19.10;79.99;100779.24;1649002;87;25844;-60
2022/08/02 01:38:14;;;;;;;4.47;3.33;;;;;;;19.11;79.99;100781.47;1648137;87;26056;-60
2022/08/02 01:40:43;;;;;;;9.65;3.17;;;;;;;19.06;80.04;100780.16;1648142;86;27356;-60
2022/08/02 01:43:12;;;;;;;4.08;2.83;;;;;;;19.05;80.17;100782.55;1648665;86;25827;-60
2022/08/02 01:45:41;;;;;;;3.98;3.27;;;;;;;19.05;80.08;100785.80;1647176;86;25552;-60
2022/08/02 01:48:10;;;;;;;3.87;3.45;;;;;;;19.02;80.18;100787.54;1640386;87;25811;-60
2022/08/02 01:50:39;;;;;;;8.93;4.97;;;;;;;19.00;80.11;100787.74;1640278;87;26110;-60
2022/08/02 01:53:09;;;;;;;10.10;7.85;;;;;;;18.98;80.16;100793.06;1618312;87;28149;-60
2022/08/02 01:55:49;;;;;;;8.33;6.12;;;;;;;18.94;80.39;100788.52;1636030;87;25901;-59
2022/08/02 01:58:19;;;;;;;7.53;4.50;;;;;;;18.91;80.40;100792.45;1605993;89;25930;-60
2022/08/02 02:00:49;;;;;;;6.37;3.58;;;;;;;18.86;80.50;100795.41;1627149;84;25876;-60
2022/08/02 02:03:23;;;;;;;4.30;3.22;;;;;;;18.83;80.54;100791.69;1698189;84;25712;-60
2022/08/02 02:05:53;;;;;;;10.18;3.58;;;;;;;18.80;80.75;100790.20;1697642;84;28395;-60
2022/08/02 02:08:34;;;;;;;7.28;3.30;;;;;;;18.82;80.59;100788.64;1698152;84;25668;-60
2022/08/02 02:11:02;;;;;;;7.62;3.52;;;;;;;18.82;80.71;100788.64;1697859;84;25813;-60
2022/08/02 02:13:31;;;;;;;7.72;3.80;;;;;;;18.80;80.43;100788.84;1697881;84;25980;-60
2022/08/02 02:16:02;;;;;;;5.50;3.30;;;;;;;18.81;80.44;100791.89;1697661;84;25800;-60
2022/08/02 02:18:32;;;;;;;4.97;3.72;;;;;;;18.81;80.41;100797.34;1698155;84;27444;-60
2022/08/02 02:20:59;;;;;;;6.75;3.70;;;;;;;18.80;80.33;100795.66;1697535;84;25540;-60
2022/08/02 02:23:26;;;;;;;8.38;3.92;;;;;;;18.81;80.24;100799.20;1697952;84;25760;-62
2022/08/02 02:25:55;;;;;;;6.83;3.90;;;;;;;18.79;80.24;100799.41;1697680;84;25802;-60
2022/08/02 02:28:32;;;;;;;9.13;4.62;;;;;;;18.80;80.11;100795.66;1698168;84;25772;-61
2022/08/02 02:31:09;;;;;;;6.85;4.50;;;;;;;18.74;80.29;100795.89;1697572;84;27479;-61
2022/08/02 02:34:01;;;;;;;7.72;4.35;;;;;;;18.71;80.42;100801.70;1697849;84;25848;-61
2022/08/02 02:36:30;;;;;;;8.60;4.58;;;;;;;18.69;80.33;100799.68;1697457;84;25749;-61
2022/08/02 02:39:02;;;;;;;7.40;4.58;;;;;;;18.68;80.54;100800.74;1697796;83;25754;-61
2022/08/02 02:41:29;;;;;;;11.05;4.60;;;;;;;18.65;80.36;100799.75;1697690;84;25794;-61
2022/08/02 02:44:00;;;;;;;7.60;5.42;;;;;;;18.71;80.37;100797.62;1698066;84;27495;-61
2022/08/02 02:46:30;;;;;;;9.53;5.40;;;;;;;18.68;80.33;100797.16;1682297;84;25517;-60
2022/08/02 02:48:58;;;;;;;8.23;4.90;;;;;;;18.69;80.36;100805.66;1668602;86;25719;-61
2022/08/02 02:51:26;;;;;;;8.08;5.28;;;;;;;18.72;80.24;100808.02;1668505;86;25782;-60
2022/08/02 02:53:53;;;;;;;7.53;5.00;;;;;;;18.69;80.19;100812.47;1656434;86;25747;-60
2022/08/02 02:56:21;;;;;;;8.25;5.22;;;;;;;18.69;80.16;100805.66;1652729;86;27426;-60
2022/08/02 02:58:48;;;;;;;7.03;5.15;;;;;;;18.67;80.29;100807.72;1637985;87;25945;-60
2022/08/02 03:01:29;;;;;;;10.13;5.00;;;;;;;18.66;80.12;100805.53;1652170;85;26535;-60
2022/08/02 03:04:05;;;;;;;36.05;28.00;;;;;;;18.67;80.19;100814.53;1678569;85;25819;-61
2022/08/02 03:06:35;;;;;;;8.03;5.60;;;;;;;18.65;80.47;100809.81;1678701;85;25814;-60
2022/08/02 03:09:04;;;;;;;9.35;5.35;;;;;;;18.61;80.56;100815.63;1678592;85;27489;-61
2022/08/02 03:11:31;;;;;;;10.95;5.53;;;;;;;18.60;80.65;100813.11;1678132;85;25955;-60
2022/08/02 03:14:02;;;;;;;9.03;6.03;;;;;;;18.60;80.71;100823.47;1678595;85;25760;-61
2022/08/02 03:16:29;;;;;;;10.30;5.67;;;;;;;18.63;80.51;100823.61;1678407;85;25953;-60
2022/08/02 03:18:57;;;;;;;8.48;5.83;;;;;;;18.61;80.53;100825.17;1678681;85;25716;-61
2022/08/02 03:21:24;;;;;;;10.58;5.47;;;;;;;18.64;80.40;100834.00;1675974;85;27695;-61
2022/08/02 03:23:51;;;;;;;8.28;5.78;;;;;;;18.65;80.31;100833.80;1678587;85;25804;-61
2022/08/02 03:26:18;;;;;;;7.90;5.65;;;;;;;18.64;80.29;100838.09;1678754;85;25752;-61
2022/08/02 03:28:45;;;;;;;9.90;6.25;;;;;;;18.60;80.32;100838.98;1678200;85;25810;-61
2022/08/02 03:31:12;;;;;;;6.72;5.80;;;;;;;18.63;80.23;100839.12;1678521;85;25720;-61
2022/08/02 03:33:39;;;;;;;8.85;5.35;;;;;;;18.63;80.21;100839.95;1678514;85;28539;-61
2022/08/02 03:36:14;;;;;;;8.63;6.05;;;;;;;18.66;80.09;100840.95;1678420;85;25777;-60
2022/08/02 03:38:42;;;;;;;13.10;6.78;;;;;;;18.62;80.26;100842.34;1678847;85;25828;-60
2022/08/02 03:41:12;;;;;;;14.65;8.25;;;;;;;18.60;80.07;100837.63;1678351;85;25788;-61
2022/08/02 03:43:40;;;;;;;9.28;5.80;;;;;;;18.67;80.18;100838.55;1678815;85;25838;-61
2022/08/02 03:46:08;;;;;;;10.68;5.80;;;;;;;18.68;80.03;100838.89;1671611;85;27482;-60
2022/08/02 03:48:37;;;;;;;8.18;5.17;;;;;;;18.71;80.06;100837.13;1661086;86;25921;-59
2022/08/02 03:51:06;;;;;;;11.78;5.70;;;;;;;18.75;79.95;100841.19;1660792;86;25727;-61
2022/08/02 03:53:33;;;;;;;7.42;5.10;;;;;;;18.78;79.85;100837.23;1660787;86;25800;-61
2022/08/02 03:56:01;;;;;;;7.87;5.08;;;;;;;18.83;79.79;100844.84;1661274;86;25740;-61
2022/08/02 03:58:28;;;;;;;14.43;5.70;;;;;;;18.84;79.65;100840.55;1641231;87;27358;-61
2022/08/02 04:00:57;;;;;;;12.63;5.67;;;;;;;18.85;79.52;100844.97;1638570;86;25809;-61
2022/08/02 04:03:25;;;;;;;9.18;5.30;;;;;;;18.84;79.25;100850.63;1627119;87;25856;-61
2022/08/02 04:05:53;;;;;;;11.80;5.42;;;;;;;18.80;79.30;100845.20;1627078;88;26427;-60
2022/08/02 04:08:19;;;;;;;8.00;5.15;;;;;;;18.77;79.48;100848.66;1627037;87;25784;-60
2022/08/02 04:13:36;;;;;;;11.48;5.40;;;;;;;18.81;79.22;100856.44;1626969;88;25736;-61
2022/08/02 04:16:11;;;;;;;7.37;5.30;;;;;;;18.82;79.28;100849.45;1627328;88;25748;-61
2022/08/02 04:18:43;;;;;;;7.08;5.67;;;;;;;18.87;79.32;100854.34;1626438;88;25828;-61
2022/08/02 04:21:14;;;;;;;9.13;5.20;;;;;;;18.92;79.19;100854.61;1627178;87;25815;-61
2022/08/02 04:23:43;;;;;;;10.85;5.65;;;;;;;18.97;79.07;100848.62;1627122;88;27568;-61
2022/08/02 04:26:11;;;;;;;6.42;5.03;;;;;;;19.01;78.90;100841.73;1627341;88;25734;-61
2022/08/02 04:28:39;;;;;;;7.35;6.10;;;;;;;19.07;78.58;100850.00;1627052;88;26170;-61
2022/08/02 04:31:07;;;;;;;8.45;6.30;;;;;;;19.12;78.58;100844.52;1627093;88;25935;-60
2022/08/02 04:33:36;;;;;;;7.75;4.97;;;;;;;19.18;78.45;100845.09;1627028;88;25793;-60
2022/08/02 04:36:06;;;;;;;8.30;5.25;;;;;;;19.21;77.99;100844.20;1627278;88;27405;-60
2022/08/02 04:38:33;;;;;;;6.47;5.35;;;;;;;19.22;78.02;100843.16;1626895;88;25859;-61
2022/08/02 04:41:00;;;;;;;9.00;5.17;;;;;;;19.25;77.77;100844.66;1627161;88;25891;-61
2022/08/02 04:43:27;;;;;;;9.48;4.60;;;;;;;19.32;77.67;100846.94;1619732;88;25833;-61
2022/08/02 04:45:55;;;;;;;13.32;4.62;;;;;;;19.40;77.55;100841.89;1612061;88;25996;-62
2022/08/02 04:48:23;;;;;;;5.92;4.87;;;;;;;19.47;77.33;100841.44;1632655;87;27478;-60
2022/08/02 04:50:51;;;;;;;11.12;5.15;;;;;;;19.53;76.91;100846.64;1635627;87;26187;-61
2022/08/02 04:53:17;;;;;;;7.05;4.83;;;;;;;19.54;76.47;100838.78;1632620;87;25841;-61
2022/08/02 04:55:45;;;;;;;5.70;4.87;;;;;;;19.61;76.48;100848.41;1636942;87;25818;-62
2022/08/02 04:58:13;;;;;;;6.83;5.03;;;;;;;19.64;76.08;100843.91;1640151;87;25766;-61
2022/08/02 05:00:40;;;;;;;5.33;4.70;;;;;;;19.69;75.95;100846.38;1641629;85;27604;-62
2022/08/02 05:03:07;;;;;;;8.55;4.28;;;;;;;19.77;75.87;100852.75;1630805;88;25855;-61
2022/08/02 05:05:34;;;;;;;10.68;5.25;;;;;;;19.83;75.45;100854.72;1642503;87;25822;-61
2022/08/02 05:08:01;;;;;;;9.58;6.67;;;;;;;19.85;75.40;100854.04;1642708;87;25960;-61
2022/08/02 05:10:28;;;;;;;7.70;5.33;;;;;;;19.88;75.36;100852.27;1642677;87;25474;-60
2022/08/02 05:12:55;;;;;;;10.10;4.78;;;;;;;19.88;74.88;100857.73;1642633;87;26956;-60
2022/08/02 05:15:23;;;;;;;7.85;4.30;;;;;;;19.92;74.59;100849.48;1671351;84;26376;-61
2022/08/02 05:17:50;;;;;;;7.92;4.30;;;;;;;19.95;74.69;100849.60;1677693;84;25882;-62
2022/08/02 05:20:18;;;;;;;6.20;4.97;;;;;;;19.98;74.35;100850.05;1677450;85;26952;-62
2022/08/02 05:22:46;;;;;;;8.23;4.40;;;;;;;20.03;74.29;100860.92;1678017;85;27016;-61
2022/08/02 05:25:14;;;;;;;5.53;4.50;;;;;;;20.04;74.01;100851.16;1641046;86;28412;-63
2022/08/02 05:27:41;;;;;;;7.47;4.00;;;;;;;20.02;73.71;100849.13;1641267;86;25824;-61
2022/08/02 05:30:09;;;;;;;7.35;4.12;;;;;;;20.10;73.92;100854.45;1641176;86;25820;-62
2022/08/02 05:32:46;;;;;;;6.87;3.77;;;;;;;20.16;73.06;100865.97;1641271;87;25739;-61
2022/08/02 05:35:20;;;;;;;4.67;3.77;;;;;;;20.24;73.10;100855.41;1640478;87;25869;-61
2022/08/02 05:37:50;;;;;;;6.65;4.12;;;;;;;20.35;72.95;100865.47;1641220;87;28132;-62
2022/08/02 05:40:18;;;;;;;10.48;5.17;;;;;;;20.51;72.36;100867.06;1641228;87;25738;-61
2022/08/02 05:42:45;;;;;;;11.70;3.90;;;;;;;20.57;71.64;100867.62;1641470;87;25836;-61
2022/08/02 05:45:12;;;;;;;5.47;3.92;;;;;;;20.66;71.56;100864.22;1641206;86;25845;-61
2022/08/02 05:47:40;;;;;;;6.78;4.10;;;;;;;20.74;70.86;100864.92;1683910;85;25757;-62
2022/08/02 05:50:09;;;;;;;7.08;3.83;;;;;;;20.79;70.86;100880.21;1683712;85;27533;-62
2022/08/02 05:52:53;;;;;;;6.53;4.03;;;;;;;20.86;70.51;100878.86;1683902;85;26018;-62
2022/08/02 05:55:33;;;;;;;8.00;4.15;;;;;;;20.86;70.43;100888.96;1683488;84;25829;-61
2022/08/02 05:58:13;;;;;;;4.35;3.80;;;;;;;20.93;69.57;100888.47;1684033;85;25916;-61
2022/08/02 06:00:41;;;;;;;4.78;3.42;;;;;;;20.90;70.04;100891.09;1686149;84;25732;-61
2022/08/02 06:03:38;;;;;;;6.20;4.22;;;;;;;20.89;69.81;100892.64;1692723;84;27420;-61
2022/08/02 06:06:09;;;;;;;5.97;4.20;;;;;;;20.91;70.27;100900.98;1693019;84;25729;-61
2022/08/02 06:08:44;;;;;;;7.97;3.92;;;;;;;21.00;69.62;100902.19;1709594;83;25986;-61
2022/08/02 06:11:15;;;;;;;7.70;4.70;;;;;;;21.08;69.64;100896.55;1692889;84;25988;-61
2022/08/02 06:13:45;;;;;;;7.35;4.40;;;;;;;21.20;69.47;100899.54;1692758;84;26031;-62
2022/08/02 06:16:13;;;;;;;11.88;5.10;;;;;;;21.23;68.99;100893.67;1692878;84;27326;-61
2022/08/02 06:18:42;;;;;;;6.03;4.15;;;;;;;21.35;68.67;100893.39;1692772;84;25766;-62
2022/08/02 06:21:10;;;;;;;9.73;5.22;;;;;;;21.49;67.59;100891.55;1692842;84;25770;-61
2022/08/02 06:23:41;;;;;;;9.93;4.65;;;;;;;21.62;67.69;100894.05;1694586;84;25761;-61
2022/08/02 06:26:11;;;;;;;6.30;3.77;;;;;;;21.85;67.48;100895.87;1692916;84;25770;-61
2022/08/02 06:28:38;;;;;;;5.65;4.08;;;;;;;22.04;66.72;100896.11;1662871;86;27637;-61
2022/08/02 06:31:06;;;;;;;4.42;4.00;;;;;;;22.16;66.57;100897.69;1661556;84;25817;-61
2022/08/02 06:33:33;;;;;;;4.92;3.98;;;;;;;22.32;65.41;100900.00;1661370;86;25786;-61
2022/08/02 06:36:08;;;;;;;3.52;3.05;;;;;;;22.43;64.45;100902.69;1661538;86;25794;-62
2022/08/02 06:38:52;;;;;;;4.75;3.85;;;;;;;22.49;63.53;100900.45;1661567;84;25806;-62
2022/08/02 06:41:22;;;;;;;4.28;3.77;;;;;;;22.52;63.11;100903.30;1646913;85;27501;-62
2022/08/02 06:44:02;;;;;;;6.40;3.58;;;;;;;22.48;63.62;100907.53;1661488;86;25945;-62
2022/08/02 06:46:29;;;;;;;4.53;4.03;;;;;;;22.52;63.38;100903.30;1676063;85;25871;-61
2022/08/02 06:48:56;;;;;;;6.40;4.20;;;;;;;22.58;63.01;100909.83;1682736;85;25795;-62
2022/08/02 06:51:24;;;;;;;6.58;3.75;;;;;;;22.54;62.85;100905.30;1687240;85;26609;-61
2022/08/02 06:53:51;;;;;;;5.47;3.65;;;;;;;22.49;62.77;100910.05;1683005;85;27576;-62
2022/08/02 06:56:18;;;;;;;11.28;3.45;;;;;;;22.33;63.30;100919.50;1687244;85;26102;-62
2022/08/02 06:58:45;;;;;;;7.45;3.77;;;;;;;22.20;63.75;100917.61;1682876;85;25792;-61
2022/08/02 07:01:12;;;;;;;4.30;3.42;;;;;;;22.05;64.13;100912.86;1687135;85;25817;-62
2022/08/02 07:03:40;;;;;;;20.57;4.12;;;;;;;21.88;64.67;100911.03;1683036;85;25814;-61
2022/08/02 07:06:08;;;;;;;5.45;4.12;;;;;;;21.82;65.27;100918.22;1687534;85;27495;-62
2022/08/02 07:08:37;;;;;;;5.17;3.70;;;;;;;21.83;65.36;100923.98;1676493;84;25759;-62
2022/08/02 07:11:08;;;;;;;17.23;3.83;;;;;;;21.81;65.57;100927.48;1646273;87;25775;-61
2022/08/02 07:13:36;;;;;;;6.72;3.60;;;;;;;21.84;65.53;100935.25;1650564;86;26462;-61
2022/08/02 07:16:04;;;;;;;4.17;3.33;;;;;;;21.87;65.02;100926.64;1634679;87;25810;-61
2022/08/02 07:18:31;;;;;;;6.25;3.50;;;;;;;21.87;65.23;100933.48;1634562;87;27657;-62
2022/08/02 07:20:58;;;;;;;20.90;3.58;;;;;;;21.89;64.97;100929.16;1634177;87;25967;-62
2022/08/02 07:23:25;;;;;;;8.68;3.20;;;;;;;22.06;64.38;100935.09;1634546;87;25737;-61
2022/08/02 07:25:52;;;;;;;9.13;3.10;;;;;;;22.23;63.80;100934.18;1634472;87;25856;-60
2022/08/02 07:28:19;;;;;;;4.92;3.10;;;;;;;22.36;62.68;100936.08;1634634;86;25792;-62
2022/08/02 07:30:46;;;;;;;3.58;2.90;;;;;;;22.32;62.35;100932.89;1634518;87;27504;-61
2022/08/02 07:33:13;;;;;;;6.20;3.30;;;;;;;22.30;61.92;100935.02;1642892;84;25805;-62
2022/08/02 07:35:40;;;;;;;8.75;3.10;;;;;;;22.29;61.86;100932.47;1670579;85;25824;-61
2022/08/02 07:38:08;;;;;;;3.10;2.87;;;;;;;22.20;62.31;100939.52;1699730;84;25891;-61
2022/08/02 07:40:35;;;;;;;4.08;3.25;;;;;;;22.20;62.44;100934.59;1693353;84;25846;-61
2022/08/02 07:43:02;;;;;;;7.53;3.05;;;;;;;22.16;62.63;100939.64;1692712;84;27504;-61
2022/08/02 07:45:30;;;;;;;3.72;3.00;;;;;;;22.12;62.86;100944.38;1692906;83;25816;-61
2022/08/02 07:47:57;;;;;;;3.58;3.27;;;;;;;22.08;62.93;100947.20;1692818;84;25723;-61
2022/08/02 07:50:24;;;;;;;8.15;3.25;;;;;;;21.97;63.40;100950.88;1693128;84;25793;-62
2022/08/02 07:52:51;;;;;;;3.52;2.98;;;;;;;21.92;63.57;100962.16;1689810;84;25763;-61
2022/08/02 07:55:19;;;;;;;5.30;2.90;;;;;;;21.89;63.50;100971.09;1689503;84;27478;-61
2022/08/02 07:57:46;;;;;;;10.28;3.00;;;;;;;21.91;63.14;100954.45;1689547;84;25785;-62
2022/08/02 08:00:16;;;;;;;11.28;2.98;;;;;;;21.95;63.29;100955.73;1689726;84;25784;-62
2022/08/02 08:02:44;;;;;;;2.98;2.65;;;;;;;21.98;63.19;100958.58;1686933;84;25802;-61
2022/08/02 08:05:12;;;;;;;4.83;2.90;;;;;;;22.03;63.29;100958.78;1685405;85;25448;-62
2022/08/02 08:07:39;;;;;;;7.12;3.08;;;;;;;22.06;62.97;100959.75;1688980;84;28333;-61
2022/08/02 08:10:09;;;;;;;5.62;2.62;;;;;;;22.09;62.80;100960.72;1698437;84;25788;-61
2022/08/02 08:12:35;;;;;;;2.98;2.67;;;;;;;22.16;62.96;100958.83;1698161;84;25764;-61
2022/08/02 08:15:04;;;;;;;8.08;2.60;;;;;;;22.27;62.53;100957.34;1698420;84;25807;-62
2022/08/02 08:17:32;;;;;;;6.20;3.02;;;;;;;22.44;62.36;100950.11;1698367;84;25797;-62
2022/08/02 08:19:58;;;;;;;4.75;2.92;;;;;;;22.62;61.17;100953.60;1698522;84;28249;-62
2022/08/02 08:22:25;;;;;;;5.22;3.02;;;;;;;22.75;60.93;100954.11;1698221;84;25758;-61
2022/08/02 08:24:52;;;;;;;7.05;2.95;;;;;;;22.91;59.73;100948.69;1694656;84;25707;-61
2022/08/02 08:27:21;;;;;;;11.30;2.87;;;;;;;23.01;59.63;100955.13;1693900;84;25854;-61
2022/08/02 08:29:49;;;;;;;3.62;2.42;;;;;;;23.04;59.50;100951.95;1693734;84;25702;-62
2022/08/02 08:32:17;;;;;;;5.28;2.95;;;;;;;22.96;59.37;100956.59;1693936;84;28158;-62
2022/08/02 08:34:50;;;;;;;2.75;2.55;;;;;;;22.67;59.57;100967.50;1693965;84;25497;-61
2022/08/02 08:37:17;;;;;;;4.85;2.77;;;;;;;22.38;60.15;100974.23;1693982;84;25747;-61
2022/08/02 08:39:44;;;;;;;3.08;2.70;;;;;;;22.22;60.81;100963.14;1693946;84;25819;-61
2022/08/02 08:42:11;;;;;;;5.35;2.83;;;;;;;22.07;61.40;100965.55;1694113;84;25750;-61
2022/08/02 08:44:38;;;;;;;9.08;3.30;;;;;;;22.10;62.01;100961.00;1693690;84;27487;-61
2022/08/02 08:47:07;;;;;;;3.55;2.80;;;;;;;22.24;62.35;100961.87;1716837;83;27218;-61
2022/08/02 08:49:44;;;;;;;5.87;2.83;;;;;;;22.47;61.77;100956.55;1723257;83;25661;-61
2022/08/02 08:52:13;;;;;;;9.70;2.95;;;;;;;22.55;60.50;100956.88;1723028;83;26826;-61
2022/08/02 08:54:41;;;;;;;3.27;2.50;;;;;;;22.60;60.42;100954.33;1723007;83;25763;-60
2022/08/02 08:57:08;;;;;;;4.17;2.98;;;;;;;22.67;60.43;100957.91;1723345;83;27612;-61
2022/08/02 08:59:35;;;;;;;5.15;2.77;;;;;;;22.85;60.35;100964.12;1723288;83;25816;-61
2022/08/02 09:02:03;;;;;;;5.95;2.90;;;;;;;22.91;60.29;100960.52;1723313;82;25729;-61
2022/08/02 09:04:30;;;;;;;4.25;2.47;;;;;;;22.87;59.96;100963.91;1728905;82;25807;-62
2022/08/02 09:06:57;;;;;;;6.00;3.58;;;;;;;22.83;60.27;100962.12;1725183;83;25736;-61
2022/08/02 09:09:25;;;;;;;6.20;3.30;;;;;;;22.73;60.38;100958.42;1700971;84;27483;-63
2022/08/02 09:11:52;;;;;;;7.60;3.60;;;;;;;22.70;60.50;100966.23;1700607;84;25718;-62
2022/08/02 09:14:28;;;;;;;5.03;3.40;;;;;;;22.54;60.63;100962.87;1700906;84;25749;-60
2022/08/02 09:17:08;;;;;;;4.62;4.03;;;;;;;22.38;61.06;100966.00;1700894;84;25808;-60
2022/08/02 09:19:36;;;;;;;4.60;3.60;;;;;;;22.24;61.73;100965.98;1700940;84;26114;-60
2022/08/02 09:22:07;;;;;;;3.40;3.10;;;;;;;22.34;61.97;100965.59;1700843;84;27478;-60
2022/08/02 09:24:50;;;;;;;5.12;3.58;;;;;;;22.47;61.72;100965.61;1702020;84;26599;-61
2022/08/02 09:27:21;;;;;;;9.85;3.83;;;;;;;22.54;61.88;100963.41;1702874;84;25799;-60
2022/08/02 09:29:52;;;;;;;4.47;3.45;;;;;;;22.45;61.55;100960.02;1703120;84;25751;-61
2022/08/02 09:32:20;;;;;;;7.03;3.92;;;;;;;22.34;61.85;100966.95;1702927;84;25821;-61
2022/08/02 09:34:53;;;;;;;4.30;3.08;;;;;;;22.11;62.53;100965.44;1669457;85;27513;-61
2022/08/02 09:37:26;;;;;;;10.18;3.50;;;;;;;22.16;62.84;100962.07;1640363;87;25790;-61
2022/08/02 09:39:53;;;;;;;;;;;;;;;22.18;62.90;100975.91;1671437;86;25914;-60
2022/08/02 09:42:20;;;;;;;5.30;3.37;;;;;;;22.24;62.70;100967.89;1641793;87;25810;-60
2022/08/02 09:44:59;;;;;;;7.00;4.15;;;;;;;22.23;62.36;100968.94;1641923;87;25816;-60
2022/08/02 09:47:28;;;;;;;4.95;3.45;;;;;;;22.25;62.80;100968.21;1667217;84;27666;-60
2022/08/02 09:49:57;;;;;;;7.47;3.27;;;;;;;22.39;62.75;100964.41;1666833;86;25727;-61
2022/08/02 09:52:30;;;;;;;13.03;3.47;;;;;;;22.47;62.61;100968.34;1666853;85;25864;-61
2022/08/02 09:55:07;;;;;;;7.95;3.70;;;;;;;22.50;62.53;100967.94;1666886;85;34631;-61
2022/08/02 09:57:37;;;;;;;7.17;2.70;;;;;;;22.58;62.70;100969.63;1701192;84;25726;-60
2022/08/02 10:00:09;;;;;;;3.37;2.70;;;;;;;22.73;62.31;100974.88;1700734;84;27489;-61
2022/08/02 10:02:39;;;;;;;4.72;3.40;;;;;;;22.81;61.49;100971.08;1700824;84;25753;-61
2022/08/02 10:05:07;;;;;;;5.95;3.22;;;;;;;22.75;61.12;100975.52;1694368;84;25698;-61
2022/08/02 10:07:35;;;;;;;4.72;3.22;;;;;;;22.68;61.47;100977.96;1679870;85;26486;-61
2022/08/02 10:10:03;;;;;;;10.25;3.65;;;;;;;22.60;61.15;100977.64;1639948;87;25748;-61
2022/08/02 10:12:30;;;;;;;3.50;3.20;;;;;;;22.56;61.46;100974.48;1639690;87;27485;-61
2022/08/02 10:14:58;;;;;;;6.05;3.25;;;;;;;22.59;61.21;100978.69;1644842;87;26134;-61
2022/08/02 10:17:26;;;;;;;3.45;3.15;;;;;;;22.62;61.44;100976.91;1639729;87;25877;-61
2022/08/02 10:19:53;;;;;;;6.83;3.55;;;;;;;22.70;61.22;100989.54;1639617;87;26433;-61
2022/08/02 10:22:21;;;;;;;5.87;3.33;;;;;;;22.73;60.71;100991.33;1644792;87;25470;-61
2022/08/02 10:24:50;;;;;;;5.70;3.25;;;;;;;22.66;60.82;100984.50;1640882;87;27604;-61
2022/08/02 10:27:19;;;;;;;4.25;3.17;;;;;;;22.59;60.75;100982.26;1683372;85;25862;-61
2022/08/02 10:29:48;;;;;;;3.08;2.77;;;;;;;22.54;60.93;100988.91;1683693;85;25739;-61
2022/08/02 10:32:27;;;;;;;6.47;3.75;;;;;;;22.56;61.37;100987.33;1641192;86;25789;-61
2022/08/02 10:34:59;;;;;;;5.50;3.20;;;;;;;22.50;61.22;100992.61;1634925;87;25774;-61
2022/08/02 10:37:30;;;;;;;5.08;3.37;;;;;;;22.47;61.53;100982.05;1641008;87;27589;-61
2022/08/02 10:39:58;;;;;;;6.60;2.90;;;;;;;22.42;61.24;100987.34;1641794;85;26104;-61
2022/08/02 10:42:47;;;;;;;7.37;3.35;;;;;;;22.41;61.60;100996.61;1640940;87;25754;-61
2022/08/02 10:45:18;;;;;;;9.20;3.55;;;;;;;22.36;61.44;100993.63;1683026;85;25979;-60
2022/08/02 10:48:09;;;;;;;4.28;2.80;;;;;;;22.36;61.58;100988.15;1670256;85;25849;-61
2022/08/02 10:50:51;;;;;;;4.62;2.92;;;;;;;22.40;61.47;100991.34;1639756;87;27639;-60
2022/08/02 10:53:33;;;;;;;5.58;3.27;;;;;;;22.54;61.76;100985.34;1639653;87;26509;-60
2022/08/02 10:56:03;;;;;;;4.87;2.85;;;;;;;22.75;61.48;100986.48;1644606;87;25745;-61
2022/08/02 10:58:32;;;;;;;12.35;3.20;;;;;;;22.91;61.13;100976.98;1639721;87;25794;-60
2022/08/02 11:01:31;;;;;;;5.08;3.08;;;;;;;22.97;60.52;100969.25;1639759;87;25835;-61
2022/08/02 11:04:00;;;;;;;6.00;2.92;;;;;;;23.05;60.46;100976.42;1644641;85;29648;-60
2022/08/02 11:06:27;;;;;;;6.20;2.85;;;;;;;23.01;60.22;100979.81;1671916;85;26322;-61
2022/08/02 11:09:27;;;;;;;2.90;2.60;;;;;;;23.09;60.29;100972.72;1682903;85;25760;-60
2022/08/02 11:12:13;;;;;;;7.10;3.30;;;;;;;23.24;59.81;100972.51;1682475;85;25907;-60
2022/08/02 11:14:43;;;;;;;4.35;3.08;;;;;;;23.36;59.50;100978.17;1682643;85;25950;-59
2022/08/02 11:17:18;;;;;;;9.93;2.70;;;;;;;23.39;58.86;100979.95;1682720;85;28403;-60
2022/08/02 11:20:13;;;;;;;5.53;2.83;;;;;;;23.38;58.93;100979.63;1682633;85;25630;-61
2022/08/02 11:22:43;;;;;;;3.17;2.37;;;;;;;23.50;58.59;100974.84;1682823;85;25748;-61
2022/08/02 11:25:27;;;;;;;5.35;2.70;;;;;;;23.56;58.59;100979.45;1678202;85;25740;-61
2022/08/02 11:28:08;;;;;;;6.20;2.45;;;;;;;23.60;58.49;100973.85;1677959;85;25773;-61
2022/08/02 11:30:36;;;;;;;4.25;2.55;;;;;;;23.67;58.49;100969.17;1678035;85;27514;-61
2022/08/02 11:33:04;;;;;;;3.22;2.60;;;;;;;23.86;58.36;100965.16;1677998;85;26076;-61
2022/08/02 11:35:35;;;;;;;3.52;2.72;;;;;;;23.97;57.63;100972.75;1677705;85;25761;-61
2022/08/02 11:38:20;;;;;;;6.62;3.02;;;;;;;24.02;57.29;100980.33;1677063;85;25989;-61
2022/08/02 11:40:48;;;;;;;6.92;2.85;;;;;;;24.12;56.43;100979.83;1678117;85;26181;-61
2022/08/02 11:43:21;;;;;;;2.55;2.20;;;;;;;24.07;56.84;100982.70;1677913;85;27475;-61